BRU795 UMMS-VVCR
Flight info
| Callsign | BRU795 |
|---|---|
| Flight time | N/A |
| Altitude | 37000 |
| Route | SORF2F SORFO L979 ASKIL L736 LODKU M56 LUTUL L993 TUSEP N126 RULAD A460 XKC L888 BIDRU A581 SAGAG B218 LPB W77 KADIN W76 LASAP W78 ATP BOMPA B202 PLK KARAN W2 NHATA NHAT1A |
| Aircraft | A332/H-VGDW/C |
Departure
| Time | 2026-04-29 16:20 |
|---|---|
| Airport | Minsk National Airport (UMMS) |
Arrival
| Time | N/A |
|---|---|
| Airport | Cam Ranh International Airport / Cam Ranh Air Base (VVCR) |
| Time | Latitude | Longitude | Altitude | Speed | Heading |
|---|---|---|---|---|---|
| 2026-04-29 15:46 | 53.88854 | 28.03422 | 654 ft | 0 kts | 343° |
| 2026-04-29 16:06 | 53.88848 | 28.03425 | 654 ft | 2 kts | 343° |
| 2026-04-29 16:07 | 53.88834 | 28.03432 | 655 ft | 2 kts | 343° |
| 2026-04-29 16:07 | 53.88819 | 28.03438 | 655 ft | 2 kts | 5° |
| 2026-04-29 16:07 | 53.88805 | 28.03431 | 655 ft | 2 kts | 37° |
| 2026-04-29 16:07 | 53.88796 | 28.03413 | 655 ft | 2 kts | 69° |
| 2026-04-29 16:08 | 53.88793 | 28.03400 | 655 ft | 1 kts | 79° |
| 2026-04-29 16:08 | 53.88793 | 28.03398 | 655 ft | 0 kts | 79° |
| 2026-04-29 16:10 | 53.88793 | 28.03399 | 655 ft | 0 kts | 79° |
| 2026-04-29 16:13 | 53.88794 | 28.03402 | 655 ft | 1 kts | 79° |
| 2026-04-29 16:13 | 53.88800 | 28.03464 | 655 ft | 9 kts | 78° |
| 2026-04-29 16:14 | 53.88840 | 28.03597 | 655 ft | 15 kts | 52° |
| 2026-04-29 16:14 | 53.88942 | 28.03675 | 655 ft | 16 kts | 1° |
| 2026-04-29 16:14 | 53.88971 | 28.03706 | 655 ft | 15 kts | 58° |
| 2026-04-29 16:15 | 53.88975 | 28.03738 | 655 ft | 15 kts | 89° |
| 2026-04-29 16:15 | 53.88885 | 28.04261 | 666 ft | 19 kts | 52° |
| 2026-04-29 16:15 | 53.88983 | 28.04447 | 673 ft | 23 kts | 48° |
| 2026-04-29 16:16 | 53.89096 | 28.04667 | 681 ft | 25 kts | 47° |
| 2026-04-29 16:16 | 53.89172 | 28.04843 | 689 ft | 13 kts | 80° |
| 2026-04-29 16:16 | 53.89138 | 28.04971 | 691 ft | 11 kts | 129° |
| 2026-04-29 16:16 | 53.89086 | 28.05061 | 691 ft | 10 kts | 139° |
| 2026-04-29 16:17 | 53.89019 | 28.05160 | 689 ft | 14 kts | 139° |
| 2026-04-29 16:17 | 53.88933 | 28.05287 | 690 ft | 17 kts | 138° |
| 2026-04-29 16:17 | 53.88837 | 28.05428 | 691 ft | 19 kts | 140° |
| 2026-04-29 16:17 | 53.88731 | 28.05587 | 692 ft | 22 kts | 139° |
| 2026-04-29 16:18 | 53.88646 | 28.05790 | 692 ft | 17 kts | 79° |
| 2026-04-29 16:18 | 53.88719 | 28.05835 | 694 ft | 9 kts | 344° |
| 2026-04-29 16:18 | 53.88784 | 28.05807 | 695 ft | 9 kts | 350° |
| 2026-04-29 16:18 | 53.88849 | 28.05782 | 696 ft | 9 kts | 342° |
| 2026-04-29 16:19 | 53.88945 | 28.05678 | 698 ft | 31 kts | 320° |
| 2026-04-29 16:19 | 53.89221 | 28.05275 | 696 ft | 75 kts | 319° |
| 2026-04-29 16:19 | 53.89733 | 28.04519 | 680 ft | 119 kts | 319° |
| 2026-04-29 16:19 | 53.90486 | 28.03395 | 654 ft | 165 kts | 317° |
| 2026-04-29 16:20 | 53.91346 | 28.01938 | 1007 ft | 175 kts | 311° |
| 2026-04-29 16:20 | 53.92302 | 28.00837 | 1547 ft | 175 kts | 351° |
| 2026-04-29 16:20 | 53.93489 | 28.01203 | 2151 ft | 181 kts | 31° |
| 2026-04-29 16:20 | 53.94297 | 28.02930 | 2609 ft | 206 kts | 70° |
| 2026-04-29 16:21 | 53.94333 | 28.05453 | 3190 ft | 230 kts | 105° |
| 2026-04-29 16:21 | 53.93528 | 28.07827 | 4077 ft | 235 kts | 123° |
| 2026-04-29 16:21 | 53.92566 | 28.10094 | 4757 ft | 247 kts | 122° |
| 2026-04-29 16:21 | 53.91535 | 28.12558 | 5289 ft | 265 kts | 123° |
| 2026-04-29 16:22 | 53.90749 | 28.15384 | 5821 ft | 278 kts | 97° |
| 2026-04-29 16:22 | 53.90786 | 28.18695 | 6418 ft | 288 kts | 74° |
| 2026-04-29 16:22 | 53.91608 | 28.21859 | 6988 ft | 300 kts | 53° |
| 2026-04-29 16:22 | 53.92810 | 28.24649 | 7488 ft | 287 kts | 50° |
| 2026-04-29 16:23 | 53.93778 | 28.26717 | 7833 ft | 279 kts | 48° |
| 2026-04-29 16:23 | 53.94554 | 28.28335 | 8138 ft | 278 kts | 48° |
| 2026-04-29 16:23 | 53.95794 | 28.30895 | 8643 ft | 280 kts | 48° |
| 2026-04-29 16:23 | 53.97023 | 28.33425 | 9143 ft | 280 kts | 48° |
| 2026-04-29 16:24 | 53.97335 | 28.34066 | 9269 ft | 280 kts | 48° |
| 2026-04-29 16:24 | 53.97805 | 28.35032 | 9457 ft | 280 kts | 48° |
| 2026-04-29 16:24 | 53.99043 | 28.37582 | 9956 ft | 280 kts | 48° |
| 2026-04-29 16:24 | 54.00276 | 28.40122 | 10455 ft | 280 kts | 48° |
| 2026-04-29 16:25 | 54.01508 | 28.42663 | 10962 ft | 279 kts | 48° |
| 2026-04-29 16:25 | 54.02721 | 28.45168 | 11455 ft | 278 kts | 48° |
| 2026-04-29 16:25 | 54.03844 | 28.47491 | 11893 ft | 276 kts | 48° |
| 2026-04-29 16:25 | 54.05051 | 28.49985 | 12385 ft | 274 kts | 48° |
| 2026-04-29 16:26 | 54.06240 | 28.52450 | 12865 ft | 272 kts | 48° |
| 2026-04-29 16:26 | 54.07450 | 28.54955 | 13192 ft | 276 kts | 48° |
| 2026-04-29 16:26 | 54.08700 | 28.57547 | 13177 ft | 292 kts | 48° |
| 2026-04-29 16:26 | 54.09994 | 28.60237 | 13223 ft | 306 kts | 48° |
| 2026-04-29 16:27 | 54.11384 | 28.63127 | 13370 ft | 316 kts | 48° |
| 2026-04-29 16:27 | 54.12766 | 28.66004 | 13842 ft | 316 kts | 49° |
| 2026-04-29 16:27 | 54.14160 | 28.68912 | 14273 ft | 317 kts | 49° |
| 2026-04-29 16:27 | 54.15550 | 28.71809 | 14688 ft | 318 kts | 49° |
| 2026-04-29 16:28 | 54.16949 | 28.74729 | 15106 ft | 319 kts | 49° |
| 2026-04-29 16:28 | 54.18334 | 28.77624 | 15527 ft | 319 kts | 50° |
| 2026-04-29 16:28 | 54.19727 | 28.80540 | 15940 ft | 319 kts | 50° |
| 2026-04-29 16:28 | 54.21127 | 28.83476 | 16361 ft | 319 kts | 50° |
| 2026-04-29 16:29 | 54.22539 | 28.86439 | 16784 ft | 319 kts | 50° |
| 2026-04-29 16:29 | 54.23925 | 28.89351 | 17193 ft | 319 kts | 51° |
| 2026-04-29 16:29 | 54.25308 | 28.92261 | 17600 ft | 318 kts | 51° |
| 2026-04-29 16:29 | 54.26694 | 28.95182 | 18016 ft | 317 kts | 51° |
| 2026-04-29 16:30 | 54.28081 | 28.98107 | 18428 ft | 316 kts | 51° |
| 2026-04-29 16:30 | 54.29379 | 29.01094 | 18808 ft | 313 kts | 63° |
| 2026-04-29 16:30 | 54.30027 | 29.04610 | 19249 ft | 308 kts | 80° |
| 2026-04-29 16:30 | 54.30410 | 29.08182 | 19685 ft | 305 kts | 79° |
| 2026-04-29 16:31 | 54.30807 | 29.11772 | 19708 ft | 314 kts | 79° |
| 2026-04-29 16:31 | 54.31213 | 29.15512 | 19706 ft | 325 kts | 79° |
| 2026-04-29 16:31 | 54.31626 | 29.19320 | 19762 ft | 334 kts | 79° |
| 2026-04-29 16:31 | 54.32056 | 29.23322 | 19785 ft | 345 kts | 79° |
| 2026-04-29 16:32 | 54.32487 | 29.27346 | 19825 ft | 349 kts | 79° |
| 2026-04-29 16:32 | 54.32919 | 29.31382 | 20182 ft | 341 kts | 79° |
| 2026-04-29 16:32 | 54.33344 | 29.35361 | 20604 ft | 340 kts | 79° |
| 2026-04-29 16:32 | 54.33762 | 29.39312 | 20979 ft | 338 kts | 80° |
| 2026-04-29 16:33 | 54.34582 | 29.47142 | 21715 ft | 335 kts | 80° |
| 2026-04-29 16:33 | 54.34992 | 29.51053 | 22112 ft | 332 kts | 80° |
| 2026-04-29 16:33 | 54.35394 | 29.54937 | 22476 ft | 329 kts | 81° |
| 2026-04-29 16:34 | 54.35788 | 29.58725 | 22850 ft | 326 kts | 81° |
| 2026-04-29 16:34 | 54.36182 | 29.62527 | 23223 ft | 323 kts | 81° |
| 2026-04-29 16:34 | 54.36580 | 29.66349 | 23407 ft | 326 kts | 81° |
| 2026-04-29 16:34 | 54.36979 | 29.70206 | 23374 ft | 334 kts | 81° |
| 2026-04-29 16:35 | 54.37386 | 29.74141 | 23405 ft | 342 kts | 81° |
| 2026-04-29 16:35 | 54.37802 | 29.78166 | 23418 ft | 349 kts | 81° |
| 2026-04-29 16:35 | 54.38226 | 29.82293 | 23451 ft | 357 kts | 81° |
| 2026-04-29 16:35 | 54.38657 | 29.86508 | 23468 ft | 364 kts | 81° |
| 2026-04-29 16:36 | 54.39093 | 29.90757 | 23492 ft | 362 kts | 81° |
| 2026-04-29 16:36 | 54.39521 | 29.94988 | 23600 ft | 353 kts | 81° |
| 2026-04-29 16:36 | 54.39932 | 29.99042 | 24041 ft | 348 kts | 81° |
| 2026-04-29 16:36 | 54.40340 | 30.03110 | 24425 ft | 344 kts | 81° |
| 2026-04-29 16:37 | 54.40745 | 30.07161 | 24796 ft | 341 kts | 81° |
| 2026-04-29 16:37 | 54.41141 | 30.11136 | 25178 ft | 337 kts | 81° |
| 2026-04-29 16:37 | 54.41529 | 30.15031 | 25567 ft | 333 kts | 81° |
| 2026-04-29 16:37 | 54.41785 | 30.17608 | 25826 ft | 330 kts | 81° |
| 2026-04-29 16:38 | 54.42289 | 30.22708 | 26347 ft | 324 kts | 81° |
| 2026-04-29 16:38 | 54.42661 | 30.26504 | 26735 ft | 319 kts | 81° |
| 2026-04-29 16:38 | 54.43018 | 30.30180 | 27114 ft | 313 kts | 81° |
| 2026-04-29 16:38 | 54.43373 | 30.33846 | 27400 ft | 311 kts | 81° |
| 2026-04-29 16:39 | 54.43727 | 30.37525 | 27364 ft | 317 kts | 81° |
| 2026-04-29 16:39 | 54.44088 | 30.41285 | 27384 ft | 322 kts | 81° |
| 2026-04-29 16:39 | 54.44450 | 30.45067 | 27403 ft | 328 kts | 81° |
| 2026-04-29 16:39 | 54.44823 | 30.48973 | 27423 ft | 333 kts | 81° |
| 2026-04-29 16:40 | 54.45194 | 30.52871 | 27438 ft | 338 kts | 81° |
| 2026-04-29 16:40 | 54.45576 | 30.56911 | 27459 ft | 344 kts | 81° |
| 2026-04-29 16:40 | 54.45959 | 30.60967 | 27471 ft | 350 kts | 81° |
| 2026-04-29 16:40 | 54.46339 | 30.65019 | 27495 ft | 356 kts | 82° |
| 2026-04-29 16:41 | 54.46742 | 30.69321 | 27511 ft | 362 kts | 81° |
| 2026-04-29 16:41 | 54.47143 | 30.73623 | 27533 ft | 368 kts | 81° |
| 2026-04-29 16:41 | 54.47549 | 30.77982 | 27558 ft | 373 kts | 81° |
| 2026-04-29 16:41 | 54.47954 | 30.82371 | 27578 ft | 379 kts | 81° |
| 2026-04-29 16:42 | 54.48370 | 30.86883 | 27689 ft | 383 kts | 81° |
| 2026-04-29 16:42 | 54.48776 | 30.91315 | 28145 ft | 377 kts | 81° |
| 2026-04-29 16:42 | 54.49182 | 30.95756 | 28566 ft | 373 kts | 81° |
| 2026-04-29 16:42 | 54.49578 | 31.00107 | 28951 ft | 369 kts | 81° |
| 2026-04-29 16:43 | 54.49966 | 31.04405 | 29341 ft | 365 kts | 81° |
| 2026-04-29 16:43 | 54.50354 | 31.08692 | 29746 ft | 360 kts | 81° |
| 2026-04-29 16:43 | 54.50716 | 31.12902 | 30134 ft | 355 kts | 82° |
| 2026-04-29 16:43 | 54.51072 | 31.17084 | 30207 ft | 358 kts | 81° |
| 2026-04-29 16:44 | 54.51797 | 31.25620 | 30206 ft | 368 kts | 81° |
| 2026-04-29 16:44 | 54.52540 | 31.34437 | 30229 ft | 378 kts | 81° |
| 2026-04-29 16:45 | 54.53288 | 31.43400 | 30269 ft | 387 kts | 81° |
| 2026-04-29 16:45 | 54.54053 | 31.52653 | 30305 ft | 397 kts | 81° |
| 2026-04-29 16:46 | 54.54828 | 31.62143 | 30579 ft | 399 kts | 81° |
| 2026-04-29 16:46 | 54.55207 | 31.66791 | 30998 ft | 393 kts | 81° |
| 2026-04-29 16:46 | 54.55578 | 31.71381 | 31354 ft | 388 kts | 81° |
| 2026-04-29 16:47 | 54.55942 | 31.75912 | 31704 ft | 382 kts | 81° |
| 2026-04-29 16:47 | 54.56303 | 31.80425 | 31904 ft | 376 kts | 81° |
| 2026-04-29 16:47 | 54.56651 | 31.84779 | 32087 ft | 370 kts | 81° |
| 2026-04-29 16:47 | 54.56997 | 31.89147 | 32263 ft | 363 kts | 81° |
| 2026-04-29 16:48 | 54.57677 | 31.97769 | 32274 ft | 369 kts | 81° |
| 2026-04-29 16:48 | 54.58360 | 32.06527 | 32289 ft | 375 kts | 81° |
| 2026-04-29 16:49 | 54.59050 | 32.15464 | 32304 ft | 381 kts | 81° |
| 2026-04-29 16:49 | 54.59746 | 32.24557 | 32310 ft | 387 kts | 81° |
| 2026-04-29 16:50 | 54.60444 | 32.33774 | 32326 ft | 393 kts | 81° |
| 2026-04-29 16:50 | 54.61147 | 32.43160 | 32336 ft | 400 kts | 81° |
| 2026-04-29 16:51 | 54.61854 | 32.52684 | 32348 ft | 406 kts | 81° |
| 2026-04-29 16:51 | 54.62562 | 32.62347 | 32367 ft | 412 kts | 81° |
| 2026-04-29 16:52 | 54.62915 | 32.67204 | 32564 ft | 406 kts | 82° |
| 2026-04-29 16:52 | 54.63256 | 32.71941 | 32777 ft | 399 kts | 81° |
| 2026-04-29 16:52 | 54.63592 | 32.76610 | 32966 ft | 393 kts | 81° |
| 2026-04-29 16:52 | 54.63923 | 32.81239 | 33141 ft | 386 kts | 81° |
| 2026-04-29 16:53 | 54.64247 | 32.85787 | 33291 ft | 379 kts | 81° |
| 2026-04-29 16:53 | 54.64561 | 32.90223 | 33476 ft | 372 kts | 81° |
| 2026-04-29 16:53 | 54.65181 | 32.99060 | 33464 ft | 376 kts | 81° |
| 2026-04-29 16:54 | 54.65805 | 33.08052 | 33428 ft | 380 kts | 81° |
| 2026-04-29 16:54 | 54.66429 | 33.17150 | 33469 ft | 384 kts | 81° |
| 2026-04-29 16:55 | 54.67050 | 33.26296 | 33460 ft | 389 kts | 81° |
| 2026-04-29 16:55 | 54.67674 | 33.35592 | 33442 ft | 394 kts | 81° |
| 2026-04-29 16:56 | 54.68294 | 33.44955 | 33455 ft | 398 kts | 81° |
| 2026-04-29 16:56 | 54.68918 | 33.54473 | 33475 ft | 403 kts | 81° |
| 2026-04-29 16:57 | 54.69541 | 33.64095 | 33491 ft | 411 kts | 81° |
| 2026-04-29 16:57 | 54.70174 | 33.74014 | 33528 ft | 422 kts | 82° |
| 2026-04-29 16:58 | 54.70808 | 33.84091 | 33610 ft | 430 kts | 83° |
| 2026-04-29 16:58 | 54.70998 | 33.89221 | 33905 ft | 424 kts | 86° |
| 2026-04-29 16:58 | 54.71132 | 33.94244 | 34222 ft | 419 kts | 86° |
| 2026-04-29 16:59 | 54.71261 | 33.99174 | 34543 ft | 413 kts | 86° |
| 2026-04-29 16:59 | 54.71384 | 34.04081 | 34877 ft | 408 kts | 86° |
| 2026-04-29 16:59 | 54.71624 | 34.13843 | 34978 ft | 414 kts | 86° |
| 2026-04-29 17:00 | 54.71863 | 34.23879 | 34952 ft | 423 kts | 86° |
| 2026-04-29 17:00 | 54.72095 | 34.34081 | 34999 ft | 432 kts | 86° |
| 2026-04-29 17:01 | 54.72327 | 34.44582 | 34993 ft | 442 kts | 86° |
| 2026-04-29 17:01 | 54.72552 | 34.55277 | 34989 ft | 452 kts | 86° |
| 2026-04-29 17:02 | 54.72773 | 34.66163 | 34949 ft | 461 kts | 87° |
| 2026-04-29 17:02 | 54.72990 | 34.77364 | 34923 ft | 469 kts | 87° |
| 2026-04-29 17:03 | 54.73196 | 34.88657 | 34927 ft | 476 kts | 87° |
| 2026-04-29 17:03 | 54.73396 | 35.00069 | 34990 ft | 479 kts | 87° |
| 2026-04-29 17:04 | 54.73586 | 35.11624 | 34941 ft | 484 kts | 87° |
| 2026-04-29 17:04 | 54.73757 | 35.23299 | 34897 ft | 489 kts | 88° |
| 2026-04-29 17:05 | 54.73782 | 35.34998 | 34957 ft | 490 kts | 88° |
| 2026-04-29 17:05 | 54.73801 | 35.46762 | 34930 ft | 492 kts | 88° |
| 2026-04-29 17:06 | 54.73808 | 35.58606 | 34946 ft | 494 kts | 88° |
| 2026-04-29 17:06 | 54.73802 | 35.70409 | 34951 ft | 495 kts | 89° |
| 2026-04-29 17:07 | 54.73785 | 35.81792 | 34953 ft | 497 kts | 89° |
| 2026-04-29 17:07 | 54.73759 | 35.93727 | 34935 ft | 497 kts | 89° |
| 2026-04-29 17:08 | 54.73718 | 36.05642 | 34921 ft | 498 kts | 89° |
| 2026-04-29 17:08 | 54.73669 | 36.17557 | 34934 ft | 498 kts | 89° |
| 2026-04-29 17:09 | 54.73600 | 36.29510 | 34948 ft | 499 kts | 89° |
| 2026-04-29 17:09 | 54.73521 | 36.41467 | 34918 ft | 500 kts | 89° |
| 2026-04-29 17:10 | 54.73431 | 36.53437 | 34928 ft | 500 kts | 89° |
| 2026-04-29 17:10 | 54.73329 | 36.65427 | 34897 ft | 500 kts | 90° |
| 2026-04-29 17:11 | 54.73230 | 36.77479 | 34926 ft | 500 kts | 90° |
| 2026-04-29 17:11 | 54.73118 | 36.89466 | 34869 ft | 501 kts | 90° |
| 2026-04-29 17:12 | 54.72996 | 37.01404 | 34909 ft | 501 kts | 90° |
| 2026-04-29 17:12 | 54.72881 | 37.11496 | 34919 ft | 502 kts | 90° |
| 2026-04-29 17:13 | 54.72712 | 37.25504 | 34931 ft | 501 kts | 90° |
| 2026-04-29 17:13 | 54.72259 | 37.37427 | 34850 ft | 501 kts | 106° |
| 2026-04-29 17:14 | 54.70983 | 37.42931 | 34983 ft | 497 kts | 115° |
| 2026-04-29 17:14 | 54.69517 | 37.48364 | 34913 ft | 500 kts | 115° |
| 2026-04-29 17:14 | 54.66564 | 37.59177 | 34900 ft | 500 kts | 115° |
| 2026-04-29 17:15 | 54.63563 | 37.70078 | 34887 ft | 502 kts | 116° |
| 2026-04-29 17:15 | 54.60563 | 37.80926 | 34891 ft | 503 kts | 116° |
| 2026-04-29 17:16 | 54.57567 | 37.91701 | 34886 ft | 503 kts | 116° |
| 2026-04-29 17:16 | 54.54534 | 38.02567 | 34876 ft | 503 kts | 116° |
| 2026-04-29 17:17 | 54.51501 | 38.13370 | 34876 ft | 504 kts | 116° |
| 2026-04-29 17:17 | 54.49056 | 38.24530 | 34912 ft | 502 kts | 103° |
| 2026-04-29 17:18 | 54.47389 | 38.36128 | 34892 ft | 503 kts | 103° |
| 2026-04-29 17:18 | 54.45705 | 38.47764 | 34896 ft | 504 kts | 104° |
| 2026-04-29 17:19 | 54.44000 | 38.59444 | 34876 ft | 504 kts | 104° |
| 2026-04-29 17:19 | 54.42286 | 38.71104 | 34881 ft | 505 kts | 105° |
| 2026-04-29 17:20 | 54.40565 | 38.82719 | 34916 ft | 505 kts | 105° |
| 2026-04-29 17:20 | 54.38834 | 38.94319 | 34900 ft | 506 kts | 105° |
| 2026-04-29 17:21 | 54.37087 | 39.05949 | 34902 ft | 506 kts | 105° |
| 2026-04-29 17:21 | 54.35325 | 39.17592 | 34893 ft | 506 kts | 105° |
| 2026-04-29 17:22 | 54.33553 | 39.29211 | 34896 ft | 506 kts | 105° |
| 2026-04-29 17:22 | 54.31755 | 39.40915 | 34908 ft | 507 kts | 105° |
| 2026-04-29 17:23 | 54.29961 | 39.52507 | 34888 ft | 507 kts | 105° |
| 2026-04-29 17:23 | 54.28146 | 39.64167 | 34900 ft | 507 kts | 105° |
| 2026-04-29 17:24 | 54.26327 | 39.75765 | 34879 ft | 507 kts | 106° |
| 2026-04-29 17:24 | 54.24489 | 39.87403 | 34895 ft | 508 kts | 106° |
| 2026-04-29 17:25 | 54.22644 | 39.99000 | 34895 ft | 507 kts | 106° |
| 2026-04-29 17:25 | 54.20798 | 40.10527 | 34883 ft | 508 kts | 106° |
| 2026-04-29 17:26 | 54.18927 | 40.22129 | 34882 ft | 508 kts | 106° |
| 2026-04-29 17:26 | 54.17048 | 40.33702 | 34895 ft | 509 kts | 106° |
| 2026-04-29 17:27 | 54.15157 | 40.45267 | 34892 ft | 509 kts | 106° |
| 2026-04-29 17:27 | 54.13254 | 40.56829 | 34895 ft | 509 kts | 106° |
| 2026-04-29 17:28 | 54.11340 | 40.68387 | 34902 ft | 509 kts | 107° |
| 2026-04-29 17:28 | 54.09433 | 40.79816 | 35337 ft | 497 kts | 108° |
| 2026-04-29 17:29 | 54.08501 | 40.85379 | 35617 ft | 491 kts | 108° |
| 2026-04-29 17:29 | 54.07587 | 40.90821 | 35895 ft | 485 kts | 108° |
| 2026-04-29 17:29 | 54.06668 | 40.96262 | 36166 ft | 479 kts | 108° |
| 2026-04-29 17:29 | 54.05752 | 41.01683 | 36464 ft | 473 kts | 108° |
| 2026-04-29 17:30 | 54.04847 | 41.07016 | 36746 ft | 468 kts | 108° |
| 2026-04-29 17:30 | 54.03954 | 41.12257 | 36901 ft | 466 kts | 108° |
| 2026-04-29 17:30 | 54.02155 | 41.22772 | 36881 ft | 470 kts | 108° |
| 2026-04-29 17:31 | 54.00339 | 41.33334 | 36881 ft | 474 kts | 108° |
| 2026-04-29 17:31 | 53.98484 | 41.44054 | 36888 ft | 477 kts | 108° |
| 2026-04-29 17:32 | 53.96607 | 41.54832 | 36888 ft | 480 kts | 108° |
| 2026-04-29 17:32 | 53.94711 | 41.65653 | 36887 ft | 483 kts | 109° |
| 2026-04-29 17:33 | 53.92797 | 41.76517 | 36896 ft | 485 kts | 109° |
| 2026-04-29 17:33 | 53.90858 | 41.87458 | 36887 ft | 487 kts | 109° |
| 2026-04-29 17:34 | 53.88911 | 41.98372 | 36885 ft | 489 kts | 109° |
| 2026-04-29 17:34 | 53.86931 | 42.09410 | 36900 ft | 491 kts | 109° |
| 2026-04-29 17:35 | 53.83942 | 42.25937 | 36885 ft | 492 kts | 109° |
| 2026-04-29 17:36 | 53.81931 | 42.36980 | 36892 ft | 493 kts | 109° |
| 2026-04-29 17:36 | 53.79914 | 42.47989 | 36913 ft | 494 kts | 109° |
| 2026-04-29 17:37 | 53.77879 | 42.59028 | 36903 ft | 495 kts | 109° |
| 2026-04-29 17:37 | 53.75825 | 42.70103 | 36895 ft | 495 kts | 110° |
| 2026-04-29 17:38 | 53.73771 | 42.81108 | 36895 ft | 495 kts | 110° |
| 2026-04-29 17:38 | 53.71694 | 42.92184 | 36915 ft | 496 kts | 110° |
| 2026-04-29 17:39 | 53.69612 | 43.03214 | 36900 ft | 496 kts | 110° |
| 2026-04-29 17:39 | 53.67516 | 43.14249 | 36891 ft | 497 kts | 110° |
| 2026-04-29 17:40 | 53.65411 | 43.25274 | 36880 ft | 497 kts | 110° |
| 2026-04-29 17:40 | 53.63293 | 43.36298 | 36890 ft | 498 kts | 110° |
| 2026-04-29 17:41 | 53.61149 | 43.47400 | 36898 ft | 498 kts | 111° |
| 2026-04-29 17:41 | 53.59003 | 43.58438 | 36905 ft | 498 kts | 111° |
| 2026-04-29 17:42 | 53.56854 | 43.69436 | 36898 ft | 498 kts | 111° |
| 2026-04-29 17:42 | 53.54683 | 43.80480 | 36916 ft | 498 kts | 111° |
| 2026-04-29 17:43 | 53.52508 | 43.91483 | 36910 ft | 499 kts | 111° |
| 2026-04-29 17:43 | 53.50326 | 44.02462 | 36903 ft | 499 kts | 112° |
| 2026-04-29 17:44 | 53.48124 | 44.13473 | 36905 ft | 499 kts | 112° |
| 2026-04-29 17:44 | 53.45915 | 44.24466 | 36913 ft | 499 kts | 112° |
| 2026-04-29 17:45 | 53.43689 | 44.35469 | 36916 ft | 500 kts | 112° |
| 2026-04-29 17:45 | 53.41462 | 44.46426 | 36913 ft | 500 kts | 112° |
| 2026-04-29 17:46 | 53.40327 | 44.51987 | 36920 ft | 500 kts | 112° |
| 2026-04-29 17:46 | 53.36947 | 44.68449 | 36912 ft | 500 kts | 112° |
| 2026-04-29 17:47 | 53.34723 | 44.79204 | 36923 ft | 500 kts | 113° |
| 2026-04-29 17:47 | 53.32443 | 44.90176 | 36929 ft | 500 kts | 113° |
| 2026-04-29 17:48 | 53.30155 | 45.01126 | 36939 ft | 500 kts | 113° |
| 2026-04-29 17:48 | 53.27871 | 45.11998 | 36935 ft | 500 kts | 112° |
| 2026-04-29 17:49 | 53.25559 | 45.22945 | 36958 ft | 500 kts | 113° |
| 2026-04-29 17:49 | 53.23243 | 45.33854 | 36949 ft | 501 kts | 113° |
| 2026-04-29 17:50 | 53.20910 | 45.44770 | 36944 ft | 501 kts | 113° |
| 2026-04-29 17:50 | 53.18571 | 45.55669 | 36942 ft | 501 kts | 113° |
| 2026-04-29 17:51 | 53.16214 | 45.66589 | 36933 ft | 502 kts | 114° |
| 2026-04-29 17:51 | 53.13837 | 45.77542 | 36940 ft | 502 kts | 114° |
| 2026-04-29 17:52 | 53.11465 | 45.88419 | 36971 ft | 502 kts | 114° |
| 2026-04-29 17:52 | 53.09083 | 45.99285 | 36963 ft | 502 kts | 115° |
| 2026-04-29 17:53 | 53.06686 | 46.10160 | 36988 ft | 502 kts | 115° |
| 2026-04-29 17:53 | 53.04281 | 46.21003 | 36920 ft | 503 kts | 114° |
| 2026-04-29 17:54 | 53.01857 | 46.31888 | 36941 ft | 503 kts | 114° |
| 2026-04-29 17:54 | 52.99423 | 46.42755 | 36943 ft | 503 kts | 115° |
| 2026-04-29 17:55 | 52.96990 | 46.53569 | 36945 ft | 504 kts | 115° |
| 2026-04-29 17:55 | 52.94535 | 46.64415 | 36975 ft | 503 kts | 115° |
| 2026-04-29 17:56 | 52.92075 | 46.75241 | 36945 ft | 503 kts | 116° |
| 2026-04-29 17:56 | 52.89587 | 46.86118 | 36950 ft | 503 kts | 116° |
| 2026-04-29 17:57 | 52.87104 | 46.96925 | 36942 ft | 503 kts | 115° |
| 2026-04-29 17:57 | 52.84621 | 47.07682 | 37018 ft | 502 kts | 115° |
| 2026-04-29 17:58 | 52.82137 | 47.18378 | 36967 ft | 500 kts | 115° |
| 2026-04-29 17:58 | 52.79641 | 47.29083 | 36988 ft | 499 kts | 116° |
| 2026-04-29 17:59 | 52.77152 | 47.39704 | 36991 ft | 498 kts | 116° |
| 2026-04-29 17:59 | 52.74653 | 47.50305 | 36981 ft | 497 kts | 116° |
| 2026-04-29 18:00 | 52.72167 | 47.60809 | 37011 ft | 497 kts | 116° |
| 2026-04-29 18:00 | 52.69655 | 47.71368 | 37001 ft | 497 kts | 117° |
| 2026-04-29 18:01 | 52.67124 | 47.81944 | 36955 ft | 496 kts | 117° |
| 2026-04-29 18:01 | 52.64614 | 47.92391 | 36990 ft | 495 kts | 117° |
| 2026-04-29 18:02 | 52.62091 | 48.02930 | 37026 ft | 497 kts | 116° |
| 2026-04-29 18:02 | 52.60035 | 48.13715 | 36992 ft | 500 kts | 109° |
| 2026-04-29 18:03 | 52.58602 | 48.24940 | 36995 ft | 505 kts | 103° |
| 2026-04-29 18:03 | 52.57838 | 48.36314 | 37018 ft | 508 kts | 98° |
| 2026-04-29 18:04 | 52.57738 | 48.47943 | 37054 ft | 511 kts | 91° |